Badin Air National Guard Sta, North Carolina
Current Conditions -  °F | °C
As of 2:15 PM on Friday 24 Oct 2014 (Local Time) from KVUJ Reporting Station
Clear Clear  
Wind Chill: 69°   Ceiling: Unl
Heat Index: 69°   Visibility: 10mi
Dew Point: 40°   Wind: 6mph
Humidity: 35%   Direction: 350°N
Pressure: 30.03"   Gusts: NA
Location:  35.4059°N, 80.1167°W
Report Text: KVUJ 241815Z AUTO 35005KT 10SM CLR 21/05 A3003 RMK AO2 T02050047
Loading
Personal Weather Stations






























Interactive Weather Map
Tropical Storm Tracking
New forecast layout! Learn more

10-Day Weather Forecast

Advertisements
Track Severe Weather on mobile